createdAt,value
2019-03-01T00:01:15.247Z,46.13
2019-03-01T00:03:43.672Z,48.52
2019-03-01T00:06:26.690Z,47.17
2019-03-01T00:09:27.087Z,46.33
2019-03-01T00:12:16.814Z,45.85
2019-03-01T00:15:11.143Z,46.95
2019-03-01T00:17:57.780Z,45.63
2019-03-01T00:20:38.256Z,46.80
2019-03-01T00:23:32.715Z,45.50
2019-03-01T00:26:33.059Z,43.48
2019-03-01T00:29:10.568Z,45.98
2019-03-01T00:32:09.200Z,43.15
2019-03-01T00:34:49.947Z,46.03
2019-03-01T00:37:42.486Z,45.35
2019-03-01T00:40:19.943Z,44.63
2019-03-01T00:43:06.625Z,43.78
2019-03-01T00:45:35.002Z,42.75
2019-03-01T00:48:03.379Z,43.83
2019-03-01T00:50:31.726Z,43.65
2019-03-01T00:53:00.052Z,42.58
2019-03-01T00:55:28.405Z,40.75
2019-03-01T00:57:56.816Z,40.95
2019-03-01T01:00:34.382Z,42.40
2019-03-01T01:03:02.689Z,41.53
2019-03-01T01:05:30.960Z,41.15
2019-03-01T01:07:59.353Z,39.38
2019-03-01T01:10:27.624Z,41.35
2019-03-01T01:12:55.898Z,40.90
2019-03-01T01:15:24.296Z,36.45
2019-03-01T01:17:52.572Z,39.00
2019-03-01T01:20:20.931Z,36.98
2019-03-01T01:22:49.364Z,39.53
2019-03-01T01:25:17.645Z,39.60
2019-03-01T01:27:45.996Z,40.73
2019-03-01T01:30:14.635Z,46.00
2019-03-01T01:32:42.923Z,45.23
2019-03-01T01:35:11.203Z,44.55
2019-03-01T01:37:39.540Z,40.15
2019-03-01T01:40:09.959Z,41.45
2019-03-01T01:42:38.398Z,39.45
2019-03-01T01:45:09.776Z,38.95
2019-03-01T01:47:38.141Z,36.50
2019-03-01T01:50:08.821Z,36.65
2019-03-01T01:52:37.130Z,36.35
2019-03-01T01:55:06.171Z,40.63
2019-03-01T01:57:34.447Z,40.83
2019-03-01T02:00:02.836Z,39.85
2019-03-01T02:02:31.155Z,45.12
2019-03-01T02:04:59.429Z,47.05
2019-03-01T02:07:27.731Z,47.98
2019-03-01T02:09:56.001Z,46.92
2019-03-01T02:12:24.278Z,47.70
2019-03-01T02:14:52.658Z,43.33
2019-03-01T02:17:20.934Z,46.45
2019-03-01T02:19:49.219Z,46.42
2019-03-01T02:22:17.531Z,46.33
2019-03-01T02:24:45.807Z,44.40
2019-03-01T02:27:22.443Z,45.10
2019-03-01T02:29:50.718Z,42.95
2019-03-01T02:32:28.647Z,42.53
2019-03-01T02:34:56.996Z,42.10
2019-03-01T02:37:25.353Z,40.85
2019-03-01T02:39:53.746Z,44.60
2019-03-01T02:42:22.125Z,43.73
2019-03-01T02:44:50.548Z,43.83
2019-03-01T02:47:18.940Z,41.00
2019-03-01T02:49:47.364Z,40.33
2019-03-01T02:52:15.720Z,40.58
2019-03-01T02:54:44.023Z,37.90
2019-03-01T02:57:12.396Z,39.53
2019-03-01T02:59:40.738Z,36.77
2019-03-01T03:02:09.067Z,38.33
2019-03-01T03:04:37.353Z,36.10
2019-03-01T03:07:13.103Z,35.78
2019-03-01T03:09:41.556Z,36.00
2019-03-01T03:12:09.835Z,37.17
2019-03-01T03:14:38.219Z,37.17
2019-03-01T03:17:06.597Z,35.83
2019-03-01T03:19:34.876Z,36.42
2019-03-01T03:22:03.278Z,37.75
2019-03-01T03:24:31.619Z,35.40
2019-03-01T03:26:59.925Z,34.95
2019-03-01T03:29:28.281Z,36.00
2019-03-01T03:31:56.553Z,35.08
2019-03-01T03:34:25.165Z,37.88
2019-03-01T03:36:53.553Z,38.53
2019-03-01T03:39:21.830Z,37.55
2019-03-01T03:41:50.250Z,35.08
2019-03-01T03:44:18.647Z,37.45
2019-03-01T03:46:46.924Z,36.40
2019-03-01T03:49:15.200Z,39.40
2019-03-01T03:51:43.593Z,37.20
2019-03-01T03:54:11.960Z,35.28
2019-03-01T03:56:40.253Z,38.78
2019-03-01T03:59:08.638Z,37.45
2019-03-01T04:01:36.983Z,36.93
2019-03-01T04:04:05.257Z,35.98
2019-03-01T04:06:33.575Z,37.67
2019-03-01T04:09:01.961Z,39.78
2019-03-01T04:11:30.368Z,37.42
2019-03-01T04:13:58.752Z,39.27
2019-03-01T04:16:27.104Z,40.83
2019-03-01T04:18:55.380Z,41.65
2019-03-01T04:21:23.768Z,38.60
2019-03-01T04:23:52.115Z,41.37
2019-03-01T04:26:20.400Z,43.05
2019-03-01T04:28:48.716Z,46.08
2019-03-01T04:31:16.991Z,42.90
2019-03-01T04:33:45.268Z,40.73
2019-03-01T04:36:13.654Z,42.65
2019-03-01T04:38:42.009Z,44.35
2019-03-01T04:41:10.393Z,44.53
2019-03-01T04:43:38.691Z,44.83
2019-03-01T04:46:06.967Z,40.55
2019-03-01T04:48:35.239Z,41.63
2019-03-01T04:51:03.562Z,43.08
2019-03-01T04:53:31.915Z,41.77
2019-03-01T04:56:00.197Z,44.30
2019-03-01T04:58:28.571Z,42.48
2019-03-01T05:00:57.215Z,41.73
2019-03-01T05:03:25.569Z,45.63
2019-03-01T05:05:53.884Z,44.80
2019-03-01T05:08:22.164Z,43.10
2019-03-01T05:10:50.534Z,42.60
2019-03-01T05:13:18.909Z,45.60
2019-03-01T05:15:47.263Z,43.42
2019-03-01T05:18:15.544Z,42.60
2019-03-01T05:20:43.940Z,43.52
2019-03-01T05:23:12.295Z,40.35
2019-03-01T05:25:40.677Z,38.63
2019-03-01T05:28:08.999Z,40.38
2019-03-01T05:30:37.297Z,38.80
2019-03-01T05:33:05.643Z,39.13
2019-03-01T05:35:33.967Z,40.20
2019-03-01T05:38:02.380Z,42.88
2019-03-01T05:40:30.655Z,40.92
2019-03-01T05:42:58.963Z,41.13
2019-03-01T05:45:29.006Z,41.53
2019-03-01T05:47:57.279Z,42.08
2019-03-01T05:50:25.592Z,43.90
2019-03-01T05:52:53.974Z,46.20
2019-03-01T05:56:09.381Z,43.60
2019-03-01T05:58:28.974Z,45.90
2019-03-01T06:01:20.472Z,46.35
2019-03-01T06:04:04.125Z,45.03
2019-03-01T06:06:47.719Z,45.85
2019-03-01T06:09:32.535Z,46.13
2019-03-01T06:12:20.585Z,46.08
2019-03-01T06:15:16.219Z,45.78
2019-03-01T06:18:12.591Z,47.55
2019-03-01T06:21:00.689Z,48.48
2019-03-01T06:23:35.139Z,51.25
2019-03-01T06:26:12.608Z,54.25
2019-03-01T06:28:49.727Z,52.85
2019-03-01T06:31:39.441Z,53.40
2019-03-01T06:34:29.109Z,54.73
2019-03-01T06:40:02.747Z,49.73
2019-03-01T06:43:06.039Z,51.88
2019-03-01T06:45:49.742Z,54.65
2019-03-01T06:48:24.068Z,50.30
2019-03-01T06:50:54.023Z,45.67
2019-03-01T06:53:22.319Z,49.98
2019-03-01T06:55:50.683Z,46.73
2019-03-01T06:58:20.795Z,47.65
2019-03-01T07:00:56.879Z,48.58
2019-03-01T07:03:25.195Z,47.88
2019-03-01T07:06:02.965Z,49.33
2019-03-01T07:08:23.729Z,49.75
2019-03-01T07:10:59.965Z,46.88
2019-03-01T07:13:28.323Z,48.68
2019-03-01T07:15:59.578Z,49.27
2019-03-01T07:18:29.325Z,45.15
2019-03-01T07:23:25.263Z,42.78
2019-03-01T07:25:54.852Z,42.40
2019-03-01T07:28:23.534Z,43.17
2019-03-01T07:30:51.814Z,43.17
2019-03-01T07:33:20.213Z,41.63
2019-03-01T07:35:48.724Z,42.93
2019-03-01T07:38:17.070Z,42.45
2019-03-01T07:40:45.538Z,45.90
2019-03-01T07:43:14.066Z,42.30
2019-03-01T07:45:42.433Z,43.80
2019-03-01T07:48:10.753Z,43.15
2019-03-01T07:50:39.027Z,43.35
2019-03-01T07:53:07.407Z,44.98
2019-03-01T07:55:36.053Z,42.05
2019-03-01T07:58:04.455Z,42.90
2019-03-01T08:00:32.811Z,45.70
2019-03-01T08:03:01.129Z,45.15
2019-03-01T08:05:29.400Z,47.73
2019-03-01T08:08:03.489Z,49.20
2019-03-01T08:10:30.131Z,43.83
2019-03-01T08:12:58.531Z,46.98
2019-03-01T08:15:30.010Z,44.00
2019-03-01T08:18:20.662Z,46.37
2019-03-01T08:20:49.392Z,44.95
2019-03-01T08:23:17.868Z,46.10
2019-03-01T08:25:46.159Z,43.10
2019-03-01T08:28:14.439Z,44.05
2019-03-01T08:30:45.775Z,44.30
2019-03-01T08:33:12.755Z,44.27
2019-03-01T08:35:41.096Z,44.25
2019-03-01T08:38:09.539Z,45.33
2019-03-01T08:40:37.819Z,43.58
2019-03-01T08:43:11.809Z,46.15
2019-03-01T08:45:36.399Z,46.53
2019-03-01T08:48:04.676Z,49.95
2019-03-01T08:50:33.113Z,51.13
2019-03-01T08:53:01.493Z,54.10
2019-03-01T08:55:30.795Z,53.20
2019-03-01T08:58:02.899Z,55.30
2019-03-01T09:00:38.692Z,51.10
2019-03-01T09:03:10.363Z,51.20
2019-03-01T09:05:38.713Z,48.75
2019-03-01T09:08:07.104Z,54.20
2019-03-01T09:10:35.460Z,51.70
2019-03-01T09:13:03.816Z,52.38
2019-03-01T09:15:32.215Z,47.60
2019-03-01T09:18:00.496Z,49.08
2019-03-01T09:20:28.842Z,49.20
2019-03-01T09:22:57.311Z,48.75
2019-03-01T09:25:25.586Z,47.75
2019-03-01T09:27:53.865Z,46.53
2019-03-01T09:30:26.000Z,48.25
2019-03-01T09:32:54.579Z,46.05
2019-03-01T09:35:43.888Z,45.65
2019-03-01T09:38:12.543Z,43.42
2019-03-01T09:40:40.823Z,47.35
2019-03-01T09:43:09.219Z,48.50
2019-03-01T09:45:37.635Z,44.03
2019-03-01T09:48:08.779Z,44.55
2019-03-01T09:50:38.103Z,40.85
2019-03-01T09:53:06.011Z,43.15
2019-03-01T09:55:34.850Z,43.15
2019-03-01T09:58:04.553Z,41.90
2019-03-01T10:00:56.345Z,42.08
2019-03-01T10:03:21.500Z,42.38
2019-03-01T10:05:49.783Z,42.17
2019-03-01T10:08:18.139Z,44.50
2019-03-01T10:10:46.456Z,41.42
2019-03-01T10:13:14.810Z,45.70
2019-03-01T10:15:43.116Z,43.63
2019-03-01T10:18:11.435Z,41.70
2019-03-01T10:20:39.851Z,42.48
2019-03-01T10:23:08.220Z,42.67
2019-03-01T10:25:36.608Z,40.55
2019-03-01T10:28:04.888Z,41.63
2019-03-01T10:30:33.155Z,41.02
2019-03-01T10:33:01.473Z,44.98
2019-03-01T10:35:29.757Z,42.10
2019-03-01T10:37:58.095Z,40.58
2019-03-01T10:40:27.555Z,39.10
2019-03-01T10:42:55.845Z,40.88
2019-03-01T10:45:28.603Z,40.75
2019-03-01T10:47:57.339Z,41.10
2019-03-01T10:50:25.627Z,38.35
2019-03-01T10:52:53.899Z,38.63
2019-03-01T10:55:22.286Z,40.98
2019-03-01T10:57:50.663Z,41.85
2019-03-01T11:00:24.479Z,42.08
2019-03-01T11:02:52.791Z,42.13
2019-03-01T11:05:21.150Z,42.55
2019-03-01T11:07:50.744Z,42.05
2019-03-01T11:10:39.708Z,42.85
2019-03-01T11:13:09.804Z,41.20
2019-03-01T11:15:38.155Z,41.33
2019-03-01T11:18:06.463Z,41.20
2019-03-01T11:20:34.811Z,43.30
2019-03-01T11:23:03.094Z,41.80
2019-03-01T11:25:31.575Z,45.00
2019-03-01T11:27:59.861Z,42.38
2019-03-01T11:30:30.550Z,45.08
2019-03-01T11:32:58.923Z,41.20
2019-03-01T11:35:27.211Z,43.83
2019-03-01T11:37:55.487Z,44.35
2019-03-01T11:40:27.071Z,42.50
2019-03-01T11:42:55.384Z,45.80
2019-03-01T11:45:23.692Z,46.20
2019-03-01T11:47:52.023Z,47.05
2019-03-01T11:50:22.355Z,47.38
2019-03-01T11:52:50.718Z,48.78
2019-03-01T11:55:19.187Z,44.08
2019-03-01T11:57:47.547Z,48.60
2019-03-01T12:00:22.288Z,47.40
2019-03-01T12:02:50.985Z,47.00
2019-03-01T12:05:19.475Z,49.53
2019-03-01T12:07:47.833Z,51.40
2019-03-01T12:10:18.087Z,49.73
2019-03-01T12:12:46.439Z,49.88
2019-03-01T12:15:14.725Z,47.13
2019-03-01T12:17:43.113Z,47.98
2019-03-01T12:20:18.913Z,48.35
2019-03-01T12:22:47.317Z,50.65
2019-03-01T12:25:15.772Z,53.63
2019-03-01T12:27:44.123Z,52.27
2019-03-01T12:30:20.747Z,52.43
2019-03-01T12:32:49.035Z,58.48
2019-03-01T12:35:17.386Z,53.58
2019-03-01T12:37:45.791Z,55.38
2019-03-01T12:40:19.947Z,55.60
2019-03-01T12:42:48.228Z,57.38
2019-03-01T12:45:16.592Z,56.73
2019-03-01T12:47:44.943Z,54.45
2019-03-01T12:50:14.388Z,54.83
2019-03-01T12:52:43.244Z,53.40
2019-03-01T12:55:17.683Z,54.73
2019-03-01T12:57:46.011Z,55.50
2019-03-01T13:00:32.891Z,52.95
2019-03-01T13:03:01.246Z,54.27
2019-03-01T13:05:30.338Z,51.92
2019-03-01T13:07:58.906Z,57.60
2019-03-01T13:10:30.206Z,58.83
2019-03-01T13:13:01.582Z,56.90
2019-03-01T13:15:28.555Z,56.18
2019-03-01T13:17:56.853Z,53.02
2019-03-01T13:20:26.656Z,55.08
2019-03-01T13:22:54.979Z,66.75
2019-03-01T13:25:29.527Z,59.80
2019-03-01T13:27:57.598Z,58.55
2019-03-01T13:30:27.263Z,65.87
2019-03-01T13:35:26.225Z,62.48
2019-03-01T13:37:55.255Z,62.58
2019-03-01T13:40:24.445Z,60.12
2019-03-01T13:42:53.611Z,72.97
2019-03-01T13:45:27.939Z,73.45
2019-03-01T13:47:56.275Z,72.60
2019-03-01T13:50:24.580Z,65.12
2019-03-01T13:52:52.932Z,67.85
2019-03-01T13:55:23.230Z,65.57
2019-03-01T13:57:51.717Z,69.65
2019-03-01T14:00:23.187Z,71.55
2019-03-01T14:02:51.478Z,72.25
2019-03-01T14:05:19.762Z,72.82
2019-03-01T14:07:52.245Z,73.57
2019-03-01T14:10:21.492Z,70.40
2019-03-01T14:12:49.911Z,72.53
2019-03-01T14:15:18.287Z,75.62
2019-03-01T14:18:04.223Z,77.90
2019-03-01T14:20:32.632Z,75.17
2019-03-01T14:23:00.955Z,71.10
2019-03-01T14:25:29.515Z,74.32
2019-03-01T14:28:02.011Z,87.30
2019-03-01T14:30:33.077Z,72.35
2019-03-01T14:33:03.340Z,75.83
2019-03-01T14:35:31.833Z,76.90
2019-03-01T14:38:00.118Z,76.77
2019-03-01T14:40:28.507Z,78.07
2019-03-01T14:42:56.801Z,77.40
2019-03-01T14:45:28.842Z,78.45
2019-03-01T14:48:00.112Z,76.80
2019-03-01T14:50:29.962Z,83.40
2019-03-01T14:52:59.595Z,79.12
2019-03-01T14:55:33.721Z,79.97
2019-03-01T14:58:12.284Z,81.22
2019-03-01T15:00:50.983Z,83.40
2019-03-01T15:03:33.372Z,83.27
2019-03-01T15:06:01.744Z,85.92
2019-03-01T15:08:30.108Z,83.50
2019-03-01T15:11:00.330Z,79.70
2019-03-01T15:13:31.442Z,79.62
2019-03-01T15:16:01.041Z,76.05
2019-03-01T15:18:28.990Z,77.08
2019-03-01T15:21:02.379Z,72.92
2019-03-01T15:23:28.874Z,72.92
2019-03-01T15:25:57.256Z,70.00
2019-03-01T15:28:25.604Z,66.72
2019-03-01T15:30:53.883Z,67.12
2019-03-01T15:33:22.156Z,68.52
2019-03-01T15:35:50.559Z,68.37
2019-03-01T15:38:18.909Z,66.65
2019-03-01T15:40:47.192Z,67.47
2019-03-01T15:43:15.575Z,70.85
2019-03-01T15:45:43.864Z,66.40
2019-03-01T15:48:12.220Z,71.02
2019-03-01T15:50:40.544Z,68.60
2019-03-01T15:53:08.900Z,73.50
2019-03-01T15:55:37.255Z,72.70
2019-03-01T15:58:05.559Z,77.85
2019-03-01T16:00:34.020Z,70.00
2019-03-01T16:03:02.307Z,74.12
2019-03-01T16:05:30.695Z,70.95
2019-03-01T16:07:58.967Z,74.05
2019-03-01T16:10:27.251Z,77.20
2019-03-01T16:12:55.568Z,81.35
2019-03-01T16:15:23.950Z,80.77
2019-03-01T16:17:52.429Z,73.33
2019-03-01T16:20:21.074Z,73.60
2019-03-01T16:22:51.165Z,70.45
2019-03-01T16:25:20.659Z,71.05
2019-03-01T16:27:50.620Z,67.62
2019-03-01T16:30:20.492Z,66.47
2019-03-01T16:32:50.481Z,69.07
2019-03-01T16:35:19.951Z,67.37
2019-03-01T16:37:57.899Z,65.72
2019-03-01T16:40:25.969Z,59.90
2019-03-01T16:42:54.722Z,59.03
2019-03-01T16:45:23.088Z,59.63
2019-03-01T16:47:51.422Z,61.33
2019-03-01T16:50:22.670Z,63.30
2019-03-01T16:52:51.019Z,59.85
2019-03-01T16:55:27.771Z,61.95
2019-03-01T16:58:06.245Z,66.87
2019-03-01T17:00:27.597Z,60.20
2019-03-01T17:03:07.255Z,63.55
2019-03-01T17:08:06.010Z,59.58
2019-03-01T17:10:54.113Z,58.83
2019-03-01T17:13:23.573Z,58.45
2019-03-01T17:15:52.464Z,57.20
2019-03-01T17:18:20.779Z,58.58
2019-03-01T17:20:49.059Z,57.55
2019-03-01T17:23:17.459Z,58.35
2019-03-01T17:25:47.588Z,58.38
2019-03-01T17:28:16.410Z,57.23
2019-03-01T17:30:46.676Z,57.05
2019-03-01T17:33:15.903Z,60.55
2019-03-01T17:35:44.180Z,57.75
2019-03-01T17:38:12.483Z,56.30
2019-03-01T17:40:40.829Z,57.80
2019-03-01T17:43:09.311Z,56.05
2019-03-01T17:45:37.681Z,56.90
2019-03-01T17:48:06.063Z,56.53
2019-03-01T17:50:34.344Z,57.73
2019-03-01T17:53:06.110Z,57.17
2019-03-01T17:55:34.384Z,56.13
2019-03-01T17:58:05.422Z,43.23
2019-03-01T18:00:34.517Z,37.90
2019-03-01T18:03:02.832Z,29.80
2019-03-01T18:05:31.440Z,30.45
2019-03-01T18:08:03.355Z,26.97
2019-03-01T18:10:32.066Z,26.77
2019-03-01T18:12:59.815Z,27.05
2019-03-01T18:15:28.094Z,27.85
2019-03-01T18:17:56.403Z,28.47
2019-03-01T18:20:24.778Z,28.42
2019-03-01T18:22:53.131Z,27.48
2019-03-01T18:25:22.744Z,28.55
2019-03-01T18:27:53.076Z,29.37
2019-03-01T18:30:27.083Z,29.25
2019-03-01T18:32:55.378Z,30.62
2019-03-01T18:35:27.791Z,31.23
2019-03-01T18:37:56.269Z,32.38
2019-03-01T18:40:24.792Z,30.50
2019-03-01T18:42:53.068Z,29.98
2019-03-01T18:45:27.878Z,31.07
2019-03-01T18:47:56.219Z,31.75
2019-03-01T18:50:31.336Z,31.33
2019-03-01T18:53:03.445Z,32.40
2019-03-01T18:55:32.308Z,32.83
2019-03-01T18:58:00.664Z,32.95
2019-03-01T19:00:35.779Z,34.30
2019-03-01T19:03:05.504Z,33.95
2019-03-01T19:05:36.719Z,33.63
2019-03-01T19:08:04.898Z,32.88
2019-03-01T19:10:34.686Z,35.48
2019-03-01T19:13:02.978Z,34.27
2019-03-01T19:15:31.504Z,34.13
2019-03-01T19:17:59.787Z,36.28
2019-03-01T19:20:38.003Z,36.48
2019-03-01T19:23:07.181Z,37.35
2019-03-01T19:25:35.452Z,38.40
2019-03-01T19:28:03.781Z,35.92
2019-03-01T19:30:32.138Z,36.85
2019-03-01T19:33:02.296Z,39.03
2019-03-01T19:35:30.549Z,37.75
2019-03-01T19:37:58.912Z,37.88
2019-03-01T19:40:27.275Z,38.80
2019-03-01T19:42:57.283Z,40.28
2019-03-01T19:45:25.788Z,40.35
2019-03-01T19:47:54.080Z,39.38
2019-03-01T19:50:27.532Z,40.30
2019-03-01T19:52:55.809Z,39.40
2019-03-01T19:55:24.158Z,43.05
2019-03-01T19:57:52.596Z,42.53
2019-03-01T20:00:29.070Z,42.38
2019-03-01T20:02:57.549Z,43.60
2019-03-01T20:05:39.847Z,45.92
2019-03-01T20:08:08.183Z,46.18
2019-03-01T20:10:37.009Z,47.78
2019-03-01T20:13:05.537Z,48.78
2019-03-01T20:15:33.945Z,47.35
2019-03-01T20:18:02.386Z,46.35
2019-03-01T20:20:33.526Z,49.85
2019-03-01T20:23:00.800Z,48.20
2019-03-01T20:25:29.075Z,45.08
2019-03-01T20:27:57.357Z,47.45
2019-03-01T20:30:32.892Z,47.05
2019-03-01T20:33:01.259Z,45.78
2019-03-01T20:35:29.669Z,46.65
2019-03-01T20:38:00.009Z,46.08
2019-03-01T20:40:28.320Z,45.75
2019-03-01T20:43:01.270Z,49.40
2019-03-01T20:45:38.067Z,47.25
2019-03-01T20:50:34.109Z,43.48
2019-03-01T20:53:02.460Z,43.87
2019-03-01T20:55:33.229Z,46.48
2019-03-01T20:58:03.139Z,46.60
2019-03-01T21:00:30.891Z,47.70
2019-03-01T21:02:59.180Z,49.85
2019-03-01T21:05:29.280Z,48.40
2019-03-01T21:07:57.648Z,48.73
2019-03-01T21:10:30.982Z,47.67
2019-03-01T21:12:59.685Z,48.98
2019-03-01T21:15:28.087Z,50.58
2019-03-01T21:17:57.117Z,47.45
2019-03-01T21:20:26.460Z,49.95
2019-03-01T21:22:54.817Z,51.85
2019-03-01T21:25:24.905Z,48.35
2019-03-01T21:27:53.209Z,51.05
2019-03-01T21:30:31.763Z,50.38
2019-03-01T21:33:00.035Z,49.40
2019-03-01T21:35:28.336Z,52.55
2019-03-01T21:37:56.791Z,53.08
2019-03-01T21:40:25.145Z,55.15
2019-03-01T21:42:57.385Z,54.10
2019-03-01T21:45:24.574Z,52.93
2019-03-01T21:47:52.955Z,52.60
2019-03-01T21:50:21.315Z,56.23
2019-03-01T21:52:49.692Z,57.53
2019-03-01T21:55:28.530Z,55.25
2019-03-01T21:57:55.755Z,57.67
2019-03-01T22:00:29.993Z,58.68
2019-03-01T22:02:58.007Z,58.90
2019-03-01T22:05:26.393Z,61.48
2019-03-01T22:07:54.668Z,60.40
2019-03-01T22:10:23.015Z,60.10
2019-03-01T22:12:51.331Z,61.37
2019-03-01T22:15:28.107Z,58.08
2019-03-01T22:17:56.818Z,59.97
2019-03-01T22:20:25.687Z,60.60
2019-03-01T22:22:54.226Z,62.08
2019-03-01T22:25:23.022Z,62.08
2019-03-01T22:27:51.626Z,61.33
2019-03-01T22:30:26.123Z,62.58
2019-03-01T22:32:54.711Z,65.85
2019-03-01T22:35:23.311Z,67.75
2019-03-01T22:37:53.340Z,68.12
2019-03-01T22:40:23.889Z,68.60
2019-03-01T22:42:52.450Z,67.80
2019-03-01T22:45:20.984Z,67.35
2019-03-01T22:47:49.632Z,65.90
2019-03-01T22:50:19.335Z,67.60
2019-03-01T22:55:19.642Z,56.60
2019-03-01T22:57:48.181Z,62.03
2019-03-01T23:00:49.930Z,59.50
2019-03-01T23:03:20.272Z,62.38
2019-03-01T23:05:48.955Z,64.65
2019-03-01T23:08:17.584Z,62.25
2019-03-01T23:10:46.110Z,69.22
2019-03-01T23:13:16.871Z,65.95
2019-03-01T23:15:44.874Z,64.77
2019-03-01T23:18:13.559Z,68.72
2019-03-01T23:20:42.186Z,61.23
2019-03-01T23:23:10.827Z,60.37
2019-03-01T23:25:39.361Z,59.83
2019-03-01T23:28:09.201Z,59.58
2019-03-01T23:30:37.885Z,60.75
2019-03-01T23:33:06.388Z,58.90
2019-03-01T23:35:34.908Z,59.67
2019-03-01T23:38:03.619Z,58.60
2019-03-01T23:40:32.733Z,60.58
2019-03-01T23:43:02.268Z,63.65
2019-03-01T23:45:30.920Z,67.95
2019-03-01T23:47:59.451Z,66.22
2019-03-01T23:50:28.072Z,66.20
2019-03-01T23:52:58.839Z,65.80
2019-03-01T23:55:26.827Z,58.70
2019-03-01T23:57:55.369Z,59.93
